createdAt,value
2019-02-25T00:02:02.787Z,69.70
2019-02-25T00:04:29.101Z,70.50
2019-02-25T00:06:55.329Z,69.50
2019-02-25T00:09:21.543Z,69.00
2019-02-25T00:11:47.752Z,69.30
2019-02-25T00:14:13.984Z,67.20
2019-02-25T00:16:40.201Z,67.50
2019-02-25T00:19:06.417Z,67.00
2019-02-25T00:21:32.663Z,66.80
2019-02-25T00:23:58.865Z,66.40
2019-02-25T00:26:25.076Z,65.50
2019-02-25T00:28:51.304Z,65.70
2019-02-25T00:31:17.531Z,66.20
2019-02-25T00:33:43.733Z,67.20
2019-02-25T00:36:10.965Z,67.90
2019-02-25T00:38:37.181Z,68.90
2019-02-25T00:41:03.491Z,69.60
2019-02-25T00:43:29.725Z,70.10
2019-02-25T00:45:56.040Z,69.90
2019-02-25T00:48:22.244Z,69.60
2019-02-25T00:50:48.470Z,69.10
2019-02-25T00:53:14.678Z,68.40
2019-02-25T00:55:40.893Z,68.80
2019-02-25T00:58:07.127Z,68.70
2019-02-25T01:00:33.442Z,69.00
2019-02-25T01:02:59.760Z,69.30
2019-02-25T01:05:26.011Z,69.50
2019-02-25T01:07:52.412Z,70.20
2019-02-25T01:10:18.625Z,71.30
2019-02-25T01:12:45.260Z,72.50
2019-02-25T01:15:11.582Z,72.90
2019-02-25T01:17:37.805Z,72.40
2019-02-25T01:20:07.033Z,72.70
2019-02-25T01:22:33.245Z,70.90
2019-02-25T01:24:59.556Z,69.40
2019-02-25T01:27:25.772Z,68.60
2019-02-25T01:29:51.995Z,68.30
2019-02-25T01:32:18.263Z,68.50
2019-02-25T01:34:44.537Z,68.00
2019-02-25T01:37:10.751Z,69.20
2019-02-25T01:39:38.165Z,70.50
2019-02-25T01:42:06.288Z,70.60
2019-02-25T01:44:32.502Z,70.40
2019-02-25T01:46:58.813Z,70.60
2019-02-25T01:49:25.045Z,71.80
2019-02-25T01:51:51.263Z,71.60
2019-02-25T01:54:17.472Z,70.80
2019-02-25T01:56:44.702Z,70.30
2019-02-25T01:59:10.913Z,70.40
2019-02-25T02:01:37.134Z,70.50
2019-02-25T02:04:03.360Z,70.10
2019-02-25T02:06:29.572Z,69.90
2019-02-25T02:08:55.792Z,69.70
2019-02-25T02:11:22.025Z,69.60
2019-02-25T02:13:48.233Z,69.80
2019-02-25T02:16:14.449Z,69.80
2019-02-25T02:18:40.745Z,69.60
2019-02-25T02:21:07.045Z,70.60
2019-02-25T02:23:33.359Z,70.30
2019-02-25T02:25:59.580Z,69.90
2019-02-25T02:28:25.801Z,69.40
2019-02-25T02:30:52.014Z,69.30
2019-02-25T02:33:18.279Z,70.10
2019-02-25T02:35:44.577Z,70.20
2019-02-25T02:38:10.784Z,70.30
2019-02-25T02:40:37.017Z,70.50
2019-02-25T02:43:03.232Z,70.40
2019-02-25T02:45:35.792Z,70.80
2019-02-25T02:48:05.509Z,71.50
2019-02-25T02:50:31.792Z,72.80
2019-02-25T02:52:58.098Z,72.60
2019-02-25T02:55:24.333Z,72.00
2019-02-25T02:57:50.639Z,71.70
2019-02-25T03:00:18.152Z,71.50
2019-02-25T03:02:44.841Z,71.10
2019-02-25T03:05:13.262Z,70.20
2019-02-25T03:07:39.580Z,70.80
2019-02-25T03:10:08.800Z,71.80
2019-02-25T03:12:35.015Z,72.00
2019-02-25T03:15:01.222Z,72.80
2019-02-25T03:17:27.444Z,72.80
2019-02-25T03:19:53.658Z,71.40
2019-02-25T03:22:19.941Z,70.20
2019-02-25T03:24:46.256Z,69.70
2019-02-25T03:27:12.467Z,70.20
2019-02-25T03:29:38.680Z,69.00
2019-02-25T03:32:04.906Z,68.00
2019-02-25T03:34:31.117Z,68.20
2019-02-25T03:36:57.329Z,69.50
2019-02-25T03:39:23.545Z,69.40
2019-02-25T03:41:49.762Z,67.50
2019-02-25T03:44:16.078Z,64.00
2019-02-25T03:46:42.402Z,62.10
2019-02-25T03:49:08.607Z,64.30
2019-02-25T03:51:34.914Z,68.00
2019-02-25T03:54:01.221Z,68.60
2019-02-25T03:56:27.442Z,67.40
2019-02-25T03:58:53.853Z,67.20
2019-02-25T04:01:20.087Z,65.90
2019-02-25T04:03:46.492Z,66.30
2019-02-25T04:06:12.800Z,66.60
2019-02-25T04:08:39.153Z,66.60
2019-02-25T04:11:05.456Z,66.30
2019-02-25T04:13:31.662Z,66.10
2019-02-25T04:15:57.885Z,67.00
2019-02-25T04:18:24.103Z,67.70
2019-02-25T04:20:50.316Z,67.30
2019-02-25T04:23:16.555Z,66.90
2019-02-25T04:25:42.917Z,67.10
2019-02-25T04:28:09.135Z,66.10
2019-02-25T04:30:35.450Z,64.90
2019-02-25T04:33:01.657Z,67.10
2019-02-25T04:35:27.873Z,66.80
2019-02-25T04:37:54.097Z,64.60
2019-02-25T04:40:20.312Z,63.80
2019-02-25T04:42:46.541Z,63.40
2019-02-25T04:45:18.081Z,66.50
2019-02-25T04:47:44.305Z,68.20
2019-02-25T04:50:11.704Z,68.70
2019-02-25T04:52:37.952Z,69.40
2019-02-25T04:55:06.058Z,69.80
2019-02-25T04:57:32.341Z,70.00
2019-02-25T04:59:58.572Z,69.70
2019-02-25T05:02:24.793Z,70.30
2019-02-25T05:04:51.009Z,70.30
2019-02-25T05:07:17.239Z,70.30
2019-02-25T05:09:43.548Z,68.30
2019-02-25T05:12:09.785Z,68.20
2019-02-25T05:14:36.009Z,68.60
2019-02-25T05:17:02.227Z,68.30
2019-02-25T05:19:28.437Z,68.70
2019-02-25T05:21:55.765Z,69.70
2019-02-25T05:24:21.969Z,70.80
2019-02-25T05:26:48.277Z,73.20
2019-02-25T05:29:14.590Z,73.70
2019-02-25T05:31:40.893Z,73.30
2019-02-25T05:34:07.120Z,73.00
2019-02-25T05:36:33.459Z,72.90
2019-02-25T05:38:59.666Z,72.70
2019-02-25T05:41:25.969Z,71.80
2019-02-25T05:43:52.194Z,71.00
2019-02-25T05:46:18.405Z,70.90
2019-02-25T05:48:44.610Z,70.60
2019-02-25T05:51:10.833Z,70.70
2019-02-25T05:53:37.038Z,68.50
2019-02-25T05:56:03.349Z,66.30
2019-02-25T05:58:29.665Z,66.80
2019-02-25T06:00:55.961Z,68.20
2019-02-25T06:03:22.205Z,67.50
2019-02-25T06:05:48.453Z,68.50
2019-02-25T06:08:14.769Z,69.00
2019-02-25T06:10:41.007Z,69.00
2019-02-25T06:13:07.247Z,69.30
2019-02-25T06:15:33.457Z,70.00
2019-02-25T06:17:59.678Z,70.00
2019-02-25T06:20:25.912Z,70.60
2019-02-25T06:22:52.217Z,69.40
2019-02-25T06:25:18.451Z,68.70
2019-02-25T06:27:44.781Z,68.00
2019-02-25T06:30:14.293Z,67.60
2019-02-25T06:32:40.584Z,68.50
2019-02-25T06:35:08.406Z,68.30
2019-02-25T06:37:34.621Z,67.90
2019-02-25T06:40:00.850Z,67.40
2019-02-25T06:42:27.178Z,67.80
2019-02-25T06:44:53.480Z,67.70
2019-02-25T06:47:19.704Z,67.80
2019-02-25T06:49:45.935Z,67.70
2019-02-25T06:52:12.144Z,67.20
2019-02-25T06:54:38.362Z,66.50
2019-02-25T06:57:04.587Z,65.50
2019-02-25T06:59:30.798Z,65.90
2019-02-25T07:01:57.009Z,62.60
2019-02-25T07:04:33.998Z,61.30
2019-02-25T07:07:02.122Z,65.50
2019-02-25T07:09:33.464Z,67.30
2019-02-25T07:12:04.369Z,68.40
2019-02-25T07:14:32.485Z,69.90
2019-02-25T07:17:03.354Z,70.70
2019-02-25T07:19:31.577Z,70.00
2019-02-25T07:21:59.685Z,69.10
2019-02-25T07:24:27.802Z,67.60
2019-02-25T07:27:11.108Z,67.90
2019-02-25T07:29:54.380Z,69.40
2019-02-25T07:32:22.512Z,68.60
2019-02-25T07:35:07.773Z,68.50
2019-02-25T07:37:53.858Z,70.10
2019-02-25T07:40:21.980Z,71.10
2019-02-25T07:42:59.185Z,71.60
2019-02-25T07:45:27.304Z,71.70
2019-02-25T07:47:57.935Z,71.00
2019-02-25T07:50:26.054Z,69.60
2019-02-25T07:52:54.162Z,68.60
2019-02-25T07:55:22.271Z,68.80
2019-02-25T07:57:56.517Z,70.80
2019-02-25T08:00:24.629Z,71.10
2019-02-25T08:02:52.736Z,71.40
2019-02-25T08:05:23.746Z,71.90
2019-02-25T08:07:51.852Z,71.30
2019-02-25T08:10:19.965Z,70.50
2019-02-25T08:12:57.161Z,70.40
2019-02-25T08:15:31.171Z,67.20
2019-02-25T08:18:11.785Z,67.30
2019-02-25T08:20:39.905Z,69.10
2019-02-25T08:23:09.026Z,68.80
2019-02-25T08:25:37.174Z,69.40
2019-02-25T08:28:20.218Z,70.40
2019-02-25T08:31:02.999Z,70.60
2019-02-25T08:33:36.869Z,70.60
2019-02-25T08:36:26.324Z,69.80
2019-02-25T08:39:12.365Z,69.00
2019-02-25T08:41:46.780Z,68.00
2019-02-25T08:44:14.989Z,68.20
2019-02-25T08:46:45.614Z,68.80
2019-02-25T08:49:16.705Z,68.20
2019-02-25T08:51:43.916Z,66.60
2019-02-25T08:54:10.229Z,65.40
2019-02-25T08:56:36.477Z,66.50
2019-02-25T08:59:02.888Z,66.70
2019-02-25T09:01:29.193Z,62.80
2019-02-25T09:03:55.433Z,59.10
2019-02-25T09:06:21.721Z,59.50
2019-02-25T09:08:47.941Z,60.00
2019-02-25T09:11:14.594Z,59.00
2019-02-25T09:13:40.870Z,59.20
2019-02-25T09:16:07.177Z,60.50
2019-02-25T09:18:33.397Z,62.00
2019-02-25T09:20:59.609Z,62.00
2019-02-25T09:23:26.825Z,63.60
2019-02-25T09:25:53.061Z,62.60
2019-02-25T09:28:19.269Z,60.20
2019-02-25T09:30:45.496Z,56.70
2019-02-25T09:33:11.724Z,54.70
2019-02-25T09:35:37.930Z,56.60
2019-02-25T09:38:04.258Z,57.10
2019-02-25T09:40:30.473Z,55.90
2019-02-25T09:42:56.685Z,54.90
2019-02-25T09:45:22.902Z,55.50
2019-02-25T09:47:49.224Z,58.10
2019-02-25T09:50:19.777Z,58.40
2019-02-25T09:52:45.989Z,59.10
2019-02-25T09:55:13.013Z,58.70
2019-02-25T09:57:39.229Z,57.40
2019-02-25T10:00:11.963Z,58.50
2019-02-25T10:02:38.285Z,59.00
2019-02-25T10:05:06.428Z,56.90
2019-02-25T10:07:32.605Z,56.50
2019-02-25T10:09:58.909Z,56.50
2019-02-25T10:12:25.116Z,54.30
2019-02-25T10:14:51.341Z,53.10
2019-02-25T10:17:23.764Z,54.10
2019-02-25T10:19:45.685Z,55.20
2019-02-25T10:22:11.992Z,55.50
2019-02-25T10:24:39.830Z,55.10
2019-02-25T10:27:06.233Z,51.60
2019-02-25T10:29:32.528Z,47.50
2019-02-25T10:32:00.124Z,46.40
2019-02-25T10:34:26.902Z,47.70
2019-02-25T10:36:53.216Z,47.80
2019-02-25T10:39:19.782Z,51.70
2019-02-25T10:41:46.170Z,53.80
2019-02-25T10:44:12.390Z,53.70
2019-02-25T10:46:40.317Z,53.60
2019-02-25T10:49:11.536Z,53.30
2019-02-25T10:51:36.928Z,52.90
2019-02-25T10:54:04.091Z,53.70
2019-02-25T10:56:34.106Z,53.70
2019-02-25T10:59:02.317Z,53.90
2019-02-25T11:01:29.768Z,54.00
2019-02-25T11:03:55.978Z,53.50
2019-02-25T11:06:22.189Z,52.30
2019-02-25T11:08:50.317Z,53.40
2019-02-25T11:11:20.454Z,54.80
2019-02-25T11:13:46.649Z,55.80
2019-02-25T11:16:14.074Z,56.60
2019-02-25T11:18:40.993Z,56.20
2019-02-25T11:21:08.884Z,55.90
2019-02-25T11:23:35.856Z,57.20
2019-02-25T11:26:02.263Z,57.40
2019-02-25T11:28:28.691Z,57.50
2019-02-25T11:30:54.916Z,57.00
2019-02-25T11:33:22.790Z,56.20
2019-02-25T11:35:49.254Z,57.40
2019-02-25T11:38:15.595Z,58.60
2019-02-25T11:40:41.818Z,59.80
2019-02-25T11:43:08.785Z,58.60
2019-02-25T11:45:36.497Z,58.70
2019-02-25T11:48:02.803Z,57.60
2019-02-25T11:50:29.027Z,57.90
2019-02-25T11:52:55.257Z,59.40
2019-02-25T11:55:22.006Z,60.50
2019-02-25T11:57:48.292Z,60.50
2019-02-25T12:00:22.357Z,60.90
2019-02-25T12:02:48.865Z,61.40
2019-02-25T12:05:17.393Z,64.00
2019-02-25T12:07:43.733Z,63.80
2019-02-25T12:10:11.533Z,62.20
2019-02-25T12:12:37.757Z,62.20
2019-02-25T12:15:07.285Z,63.30
2019-02-25T12:17:33.568Z,64.10
2019-02-25T12:19:59.788Z,63.00
2019-02-25T12:22:26.029Z,63.10
2019-02-25T12:24:52.238Z,64.30
2019-02-25T12:27:18.450Z,65.30
2019-02-25T12:29:44.945Z,65.30
2019-02-25T12:32:11.262Z,64.80
2019-02-25T12:34:37.690Z,64.90
2019-02-25T12:37:03.949Z,64.70
2019-02-25T12:39:30.233Z,65.00
2019-02-25T12:41:56.560Z,64.80
2019-02-25T12:44:22.876Z,64.20
2019-02-25T12:46:49.081Z,63.70
2019-02-25T12:49:15.378Z,62.80
2019-02-25T12:51:41.599Z,63.30
2019-02-25T12:54:07.812Z,62.50
2019-02-25T12:56:34.033Z,63.40
2019-02-25T12:59:00.285Z,64.60
2019-02-25T13:01:26.601Z,64.90
2019-02-25T13:03:52.833Z,64.20
2019-02-25T13:06:19.064Z,62.40
2019-02-25T13:08:45.289Z,63.20
2019-02-25T13:11:11.511Z,64.60
2019-02-25T13:13:37.742Z,64.40
2019-02-25T13:16:03.962Z,63.80
2019-02-25T13:18:30.277Z,62.40
2019-02-25T13:20:56.688Z,60.60
2019-02-25T13:23:22.974Z,59.70
2019-02-25T13:25:49.177Z,57.00
2019-02-25T13:28:15.414Z,55.60
2019-02-25T13:30:41.717Z,56.00
2019-02-25T13:33:08.026Z,56.40
2019-02-25T13:35:34.347Z,56.60
2019-02-25T13:38:00.679Z,57.30
2019-02-25T13:40:26.984Z,58.30
2019-02-25T13:42:53.321Z,58.60
2019-02-25T13:45:20.328Z,58.30
2019-02-25T13:47:46.638Z,59.50
2019-02-25T13:50:14.265Z,59.70
2019-02-25T13:52:47.984Z,60.50
2019-02-25T13:55:19.338Z,59.20
2019-02-25T13:57:45.660Z,59.40
2019-02-25T14:00:17.641Z,59.20
2019-02-25T14:02:44.256Z,59.90
2019-02-25T14:05:11.579Z,59.40
2019-02-25T14:07:37.987Z,59.30
2019-02-25T14:10:07.716Z,59.10
2019-02-25T14:12:34.023Z,59.80
2019-02-25T14:15:00.347Z,60.30
2019-02-25T14:17:26.869Z,60.80
2019-02-25T14:19:53.506Z,61.20
2019-02-25T14:22:19.835Z,60.40
2019-02-25T14:24:46.237Z,60.80
2019-02-25T14:27:12.649Z,60.80
2019-02-25T14:29:39.157Z,60.00
2019-02-25T14:32:05.609Z,60.00
2019-02-25T14:34:31.937Z,59.00
2019-02-25T14:36:59.729Z,59.80
2019-02-25T14:39:28.371Z,59.50
2019-02-25T14:41:54.831Z,63.90
2019-02-25T14:44:27.086Z,65.40
2019-02-25T14:46:50.772Z,62.80
2019-02-25T14:49:17.088Z,59.60
2019-02-25T14:51:43.518Z,60.20
2019-02-25T14:54:09.841Z,64.30
2019-02-25T14:56:36.270Z,62.50
2019-02-25T14:59:05.442Z,61.50
2019-02-25T15:01:30.941Z,62.10
2019-02-25T15:03:58.171Z,65.00
2019-02-25T15:06:26.362Z,64.50
2019-02-25T15:08:53.708Z,64.70
2019-02-25T15:11:20.130Z,63.90
2019-02-25T15:13:46.469Z,63.30
2019-02-25T15:16:12.833Z,60.60
2019-02-25T15:18:39.162Z,61.10
2019-02-25T15:21:06.810Z,60.80
2019-02-25T15:23:33.729Z,61.00
2019-02-25T15:26:05.212Z,60.70
2019-02-25T15:28:28.253Z,62.80
2019-02-25T15:30:54.697Z,63.50
2019-02-25T15:33:21.151Z,63.40
2019-02-25T15:35:47.583Z,64.00
2019-02-25T15:38:13.944Z,64.70
2019-02-25T15:40:40.243Z,64.80
2019-02-25T15:43:12.596Z,64.90
2019-02-25T15:45:40.668Z,64.90
2019-02-25T15:48:13.134Z,66.00
2019-02-25T15:50:39.696Z,66.90
2019-02-25T15:53:07.426Z,67.80
2019-02-25T15:55:34.469Z,68.00
2019-02-25T15:58:00.896Z,68.10
2019-02-25T16:00:29.835Z,69.00
2019-02-25T16:02:56.243Z,70.10
2019-02-25T16:05:27.027Z,70.20
2019-02-25T16:07:53.960Z,70.70
2019-02-25T16:10:21.224Z,70.50
2019-02-25T16:12:47.772Z,70.40
2019-02-25T16:15:17.399Z,70.40
2019-02-25T16:17:45.225Z,70.80
2019-02-25T16:20:14.885Z,71.10
2019-02-25T16:22:42.201Z,70.90
2019-02-25T16:25:14.263Z,70.40
2019-02-25T16:27:41.191Z,70.60
2019-02-25T16:30:16.738Z,69.80
2019-02-25T16:32:44.555Z,69.80
2019-02-25T16:35:12.982Z,69.30
2019-02-25T16:37:39.403Z,71.00
2019-02-25T16:40:10.519Z,72.70
2019-02-25T16:42:37.777Z,73.70
2019-02-25T16:45:09.978Z,74.80
2019-02-25T16:47:37.722Z,74.30
2019-02-25T16:50:09.178Z,74.50
2019-02-25T16:52:36.574Z,74.40
2019-02-25T16:55:06.583Z,72.90
2019-02-25T16:57:33.263Z,71.50
2019-02-25T17:00:00.350Z,71.20
2019-02-25T17:02:30.097Z,70.60
2019-02-25T17:04:56.381Z,70.70
2019-02-25T17:07:22.753Z,69.90
2019-02-25T17:09:49.153Z,69.80
2019-02-25T17:12:15.469Z,69.40
2019-02-25T17:14:41.997Z,70.70
2019-02-25T17:17:08.322Z,69.50
2019-02-25T17:19:35.828Z,70.50
2019-02-25T17:22:05.131Z,71.30
2019-02-25T17:24:32.514Z,71.50
2019-02-25T17:27:00.067Z,72.10
2019-02-25T17:29:28.869Z,73.10
2019-02-25T17:31:56.992Z,73.90
2019-02-25T17:34:23.590Z,75.10
2019-02-25T17:36:50.611Z,76.20
2019-02-25T17:39:18.139Z,75.90
2019-02-25T17:41:44.847Z,76.50
2019-02-25T17:44:11.170Z,76.50
2019-02-25T17:46:39.131Z,78.70
2019-02-25T17:49:07.689Z,78.10
2019-02-25T17:51:34.100Z,77.50
2019-02-25T17:54:00.732Z,78.00
2019-02-25T17:56:27.488Z,78.70
2019-02-25T17:58:55.177Z,78.10
2019-02-25T18:01:23.626Z,79.00
2019-02-25T18:03:49.623Z,77.70
2019-02-25T18:06:16.051Z,76.20
2019-02-25T18:08:42.492Z,74.60
2019-02-25T18:11:09.009Z,73.90
2019-02-25T18:13:35.361Z,73.50
2019-02-25T18:16:02.765Z,73.40
2019-02-25T18:18:29.195Z,73.50
2019-02-25T18:20:55.613Z,73.20
2019-02-25T18:23:22.065Z,73.30
2019-02-25T18:25:48.592Z,73.40
2019-02-25T18:28:15.499Z,73.70
2019-02-25T18:30:43.385Z,73.70
2019-02-25T18:33:10.011Z,73.30
2019-02-25T18:35:38.590Z,72.90
2019-02-25T18:38:06.990Z,72.30
2019-02-25T18:40:33.454Z,71.70
2019-02-25T18:43:02.159Z,71.60
2019-02-25T18:45:28.837Z,71.60
2019-02-25T18:47:55.173Z,71.80
2019-02-25T18:50:24.141Z,71.70
2019-02-25T18:52:52.867Z,71.20
2019-02-25T18:55:20.512Z,71.30
2019-02-25T18:57:48.186Z,71.00
2019-02-25T19:00:26.201Z,70.70
2019-02-25T19:02:54.059Z,70.40
2019-02-25T19:05:22.907Z,70.20
2019-02-25T19:07:49.662Z,70.10
2019-02-25T19:10:18.258Z,69.80
2019-02-25T19:12:45.922Z,69.50
2019-02-25T19:15:13.885Z,69.40
2019-02-25T19:17:40.207Z,69.50
2019-02-25T19:20:08.345Z,69.70
2019-02-25T19:22:36.045Z,69.80
2019-02-25T19:25:07.602Z,69.70
2019-02-25T19:27:33.724Z,69.80
2019-02-25T19:30:02.966Z,69.80
2019-02-25T19:32:30.974Z,70.00
2019-02-25T19:34:58.673Z,70.40
2019-02-25T19:37:28.913Z,70.80
2019-02-25T19:39:53.711Z,70.60
2019-02-25T19:42:20.808Z,70.70
2019-02-25T19:44:48.244Z,71.10
2019-02-25T19:47:16.631Z,71.20
2019-02-25T19:49:43.562Z,71.30
2019-02-25T19:52:12.163Z,71.50
2019-02-25T19:54:40.951Z,71.80
2019-02-25T19:57:07.662Z,71.70
2019-02-25T19:59:34.108Z,71.60
2019-02-25T20:02:00.457Z,71.70
2019-02-25T20:04:26.886Z,71.90
2019-02-25T20:06:53.723Z,72.10
2019-02-25T20:09:22.206Z,72.00
2019-02-25T20:11:48.526Z,72.20
2019-02-25T20:14:17.197Z,72.40
2019-02-25T20:16:43.025Z,72.70
2019-02-25T20:19:09.460Z,72.80
2019-02-25T20:21:35.718Z,72.80
2019-02-25T20:24:02.133Z,72.80
2019-02-25T20:26:29.663Z,72.90
2019-02-25T20:28:55.905Z,73.20
2019-02-25T20:31:22.130Z,73.90
2019-02-25T20:33:48.457Z,74.30
2019-02-25T20:36:17.142Z,74.70
2019-02-25T20:38:42.847Z,74.80
2019-02-25T20:41:09.074Z,74.90
2019-02-25T20:43:35.413Z,74.80
2019-02-25T20:46:04.028Z,74.80
2019-02-25T20:48:29.830Z,74.80
2019-02-25T20:50:59.665Z,74.60
2019-02-25T20:53:25.062Z,75.00
2019-02-25T20:55:52.460Z,75.00
2019-02-25T20:58:20.907Z,75.00
2019-02-25T21:00:49.187Z,74.30
2019-02-25T21:03:18.334Z,74.30
2019-02-25T21:05:44.679Z,74.30
2019-02-25T21:08:12.400Z,73.90
2019-02-25T21:10:39.901Z,74.50
2019-02-25T21:13:06.256Z,73.80
2019-02-25T21:15:38.206Z,73.90
2019-02-25T21:18:07.446Z,73.80
2019-02-25T21:20:32.993Z,73.20
2019-02-25T21:23:03.505Z,73.50
2019-02-25T21:25:29.133Z,74.00
2019-02-25T21:27:59.207Z,74.40
2019-02-25T21:30:23.643Z,74.50
2019-02-25T21:32:51.746Z,74.20
2019-02-25T21:35:19.532Z,74.50
2019-02-25T21:37:48.309Z,74.50
2019-02-25T21:40:16.524Z,73.20
2019-02-25T21:42:44.337Z,72.90
2019-02-25T21:45:17.952Z,72.40
2019-02-25T21:47:44.768Z,72.10
2019-02-25T21:50:13.701Z,71.90
2019-02-25T21:52:41.733Z,71.80
2019-02-25T21:55:11.500Z,72.30
2019-02-25T21:57:38.138Z,71.60
2019-02-25T22:00:13.960Z,71.90
2019-02-25T22:02:41.465Z,72.30
2019-02-25T22:05:10.183Z,72.70
2019-02-25T22:07:38.065Z,72.80
2019-02-25T22:10:10.478Z,73.20
2019-02-25T22:12:37.742Z,73.40
2019-02-25T22:15:06.824Z,73.70
2019-02-25T22:17:33.233Z,73.30
2019-02-25T22:19:59.657Z,73.10
2019-02-25T22:22:26.942Z,73.40
2019-02-25T22:24:54.297Z,73.50
2019-02-25T22:27:22.822Z,73.90
2019-02-25T22:29:48.836Z,74.10
2019-02-25T22:32:15.257Z,74.60
2019-02-25T22:34:41.680Z,74.80
2019-02-25T22:37:12.383Z,74.80
2019-02-25T22:39:36.252Z,74.80
2019-02-25T22:42:03.594Z,74.80
2019-02-25T22:44:33.535Z,74.20
2019-02-25T22:46:59.980Z,73.90
2019-02-25T22:49:28.311Z,73.60
2019-02-25T22:51:55.908Z,73.50
2019-02-25T22:54:22.852Z,73.90
2019-02-25T22:56:49.252Z,73.80
2019-02-25T22:59:19.943Z,73.70
2019-02-25T23:01:43.869Z,73.30
2019-02-25T23:04:13.046Z,72.90
2019-02-25T23:06:42.057Z,72.70
2019-02-25T23:09:07.476Z,73.00
2019-02-25T23:11:35.516Z,73.20
2019-02-25T23:14:02.958Z,73.20
2019-02-25T23:16:29.359Z,73.00
2019-02-25T23:18:55.775Z,73.00
2019-02-25T23:21:24.141Z,72.90
2019-02-25T23:23:53.446Z,73.20
2019-02-25T23:26:19.876Z,73.50
2019-02-25T23:30:31.852Z,74.00
2019-02-25T23:33:01.438Z,75.50
2019-02-25T23:35:30.706Z,76.50
2019-02-25T23:37:58.606Z,77.00
2019-02-25T23:40:25.893Z,77.20
2019-02-25T23:42:54.481Z,77.40
2019-02-25T23:45:23.202Z,77.70
2019-02-25T23:47:50.242Z,77.80
2019-02-25T23:50:18.502Z,77.70
2019-02-25T23:52:46.164Z,77.50
2019-02-25T23:55:16.481Z,77.20
2019-02-25T23:57:41.524Z,77.00
